sensor_id;sensor_type;location;lat;lon;timestamp;pressure;altitude;pressure_sealevel;temperature;humidity
7730;BME280;3908;52.310;7.230;2022-07-29T00:02:29;51180.25;;;-145.83;62.76
7730;BME280;3908;52.310;7.230;2022-07-29T00:05:17;51180.25;;;-145.83;62.83
7730;BME280;3908;52.310;7.230;2022-07-29T00:08:04;51176.34;;;-145.83;62.78
7730;BME280;3908;52.310;7.230;2022-07-29T00:10:51;51184.19;;;-145.83;62.95
7730;BME280;3908;52.310;7.230;2022-07-29T00:13:38;51201.78;;;-145.83;63.58
7730;BME280;3908;52.310;7.230;2022-07-29T00:16:25;51168.53;;;-145.83;62.78
7730;BME280;3908;52.310;7.230;2022-07-29T00:19:14;51172.44;;;-145.83;63.08
7730;BME280;3908;52.310;7.230;2022-07-29T00:22:01;51170.47;;;-145.83;63.19
7730;BME280;3908;52.310;7.230;2022-07-29T00:24:48;51182.22;;;-145.83;63.33
7730;BME280;3908;52.310;7.230;2022-07-29T00:27:36;51154.84;;;-145.83;63.30
7730;BME280;3908;52.310;7.230;2022-07-29T00:30:23;51217.44;;;-145.83;62.99
7730;BME280;3908;52.310;7.230;2022-07-29T00:33:10;51199.81;;;-145.83;62.84
7730;BME280;3908;52.310;7.230;2022-07-29T00:35:58;51201.78;;;-145.83;63.35
7730;BME280;3908;52.310;7.230;2022-07-29T00:38:44;51207.66;;;-145.83;63.83
7730;BME280;3908;52.310;7.230;2022-07-29T00:41:31;51227.22;;;-145.83;63.81
7730;BME280;3908;52.310;7.230;2022-07-29T00:44:18;51193.97;;;-145.83;63.69
7730;BME280;3908;52.310;7.230;2022-07-29T00:47:08;51201.78;;;-145.83;63.90
7730;BME280;3908;52.310;7.230;2022-07-29T00:49:57;51184.19;;;-145.83;63.76
7730;BME280;3908;52.310;7.230;2022-07-29T00:52:46;51182.22;;;-145.83;64.46
7730;BME280;3908;52.310;7.230;2022-07-29T00:55:33;51215.47;;;-145.83;64.09
7730;BME280;3908;52.310;7.230;2022-07-29T00:58:21;51186.13;;;-145.83;64.21
7730;BME280;3908;52.310;7.230;2022-07-29T01:01:08;51180.25;;;-145.83;63.84
7730;BME280;3908;52.310;7.230;2022-07-29T01:03:55;51174.41;;;-145.83;63.86
7730;BME280;3908;52.310;7.230;2022-07-29T01:06:42;51193.97;;;-145.83;63.94
7730;BME280;3908;52.310;7.230;2022-07-29T01:09:32;51172.44;;;-145.83;64.25
7730;BME280;3908;52.310;7.230;2022-07-29T01:12:23;51219.38;;;-145.83;63.66
7730;BME280;3908;52.310;7.230;2022-07-29T01:15:11;51205.69;;;-145.83;63.95
7730;BME280;3908;52.310;7.230;2022-07-29T01:18:02;51221.34;;;-145.83;63.89
7730;BME280;3908;52.310;7.230;2022-07-29T01:21:15;51145.06;;;-145.83;63.95
7730;BME280;3908;52.310;7.230;2022-07-29T01:24:17;51203.72;;;-145.83;63.94
7730;BME280;3908;52.310;7.230;2022-07-29T01:27:22;51178.31;;;-145.83;64.03
7730;BME280;3908;52.310;7.230;2022-07-29T01:30:14;51168.53;;;-145.83;64.48
7730;BME280;3908;52.310;7.230;2022-07-29T01:33:06;51150.91;;;-145.83;64.22
7730;BME280;3908;52.310;7.230;2022-07-29T01:35:54;51148.97;;;-145.83;64.21
7730;BME280;3908;52.310;7.230;2022-07-29T01:38:42;51231.13;;;-145.83;64.54
7730;BME280;3908;52.310;7.230;2022-07-29T01:41:34;51154.84;;;-145.83;64.35
7730;BME280;3908;52.310;7.230;2022-07-29T01:44:27;51178.31;;;-145.83;64.82
7730;BME280;3908;52.310;7.230;2022-07-29T01:47:23;51190.03;;;-145.83;64.54
7730;BME280;3908;52.310;7.230;2022-07-29T01:50:14;51154.84;;;-145.83;65.16
7730;BME280;3908;52.310;7.230;2022-07-29T01:53:05;51197.88;;;-145.83;65.19
7730;BME280;3908;52.310;7.230;2022-07-29T01:55:54;51215.47;;;-145.83;64.73
7730;BME280;3908;52.310;7.230;2022-07-29T01:58:43;51188.09;;;-145.83;65.18
7730;BME280;3908;52.310;7.230;2022-07-29T02:01:32;51180.25;;;-145.83;65.00
7730;BME280;3908;52.310;7.230;2022-07-29T02:04:21;51182.22;;;-145.83;64.92
7730;BME280;3908;52.310;7.230;2022-07-29T02:07:13;51178.31;;;-145.83;64.64
7730;BME280;3908;52.310;7.230;2022-07-29T02:10:03;51180.25;;;-145.83;65.11
7730;BME280;3908;52.310;7.230;2022-07-29T02:12:54;51178.31;;;-145.83;65.29
7730;BME280;3908;52.310;7.230;2022-07-29T02:15:42;51201.78;;;-145.83;65.65
7730;BME280;3908;52.310;7.230;2022-07-29T02:18:30;51150.91;;;-145.83;65.29
7730;BME280;3908;52.310;7.230;2022-07-29T02:21:23;51190.03;;;-145.83;65.18
7730;BME280;3908;52.310;7.230;2022-07-29T02:24:11;51176.34;;;-145.83;65.08
7730;BME280;3908;52.310;7.230;2022-07-29T02:27:00;51148.97;;;-145.83;64.85
7730;BME280;3908;52.310;7.230;2022-07-29T02:29:48;51172.44;;;-145.83;65.25
7730;BME280;3908;52.310;7.230;2022-07-29T02:32:40;51203.72;;;-145.83;64.89
7730;BME280;3908;52.310;7.230;2022-07-29T02:35:29;51182.22;;;-145.83;64.80
7730;BME280;3908;52.310;7.230;2022-07-29T02:38:18;51192.00;;;-145.83;64.67
7730;BME280;3908;52.310;7.230;2022-07-29T02:41:26;51192.00;;;-145.83;64.84
7730;BME280;3908;52.310;7.230;2022-07-29T02:44:17;51172.44;;;-145.83;65.77
7730;BME280;3908;52.310;7.230;2022-07-29T02:47:12;51162.66;;;-145.83;65.21
7730;BME280;3908;52.310;7.230;2022-07-29T02:50:06;51182.22;;;-145.83;65.02
7730;BME280;3908;52.310;7.230;2022-07-29T02:52:59;51192.00;;;-145.83;64.99
7730;BME280;3908;52.310;7.230;2022-07-29T02:55:55;51160.69;;;-145.83;65.30
7730;BME280;3908;52.310;7.230;2022-07-29T02:58:46;51152.88;;;-145.83;65.20
7730;BME280;3908;52.310;7.230;2022-07-29T03:01:40;51156.78;;;-145.83;65.50
7730;BME280;3908;52.310;7.230;2022-07-29T03:04:28;51164.63;;;-145.83;65.69
7730;BME280;3908;52.310;7.230;2022-07-29T03:07:18;51168.53;;;-145.83;65.73
7730;BME280;3908;52.310;7.230;2022-07-29T03:10:07;51203.72;;;-145.83;66.22
7730;BME280;3908;52.310;7.230;2022-07-29T03:12:56;51188.09;;;-145.83;66.25
7730;BME280;3908;52.310;7.230;2022-07-29T03:15:45;51193.97;;;-145.83;66.39
7730;BME280;3908;52.310;7.230;2022-07-29T03:18:32;51168.53;;;-145.83;66.70
7730;BME280;3908;52.310;7.230;2022-07-29T03:21:20;51195.91;;;-145.83;66.69
7730;BME280;3908;52.310;7.230;2022-07-29T03:24:07;51192.00;;;-145.83;67.57
7730;BME280;3908;52.310;7.230;2022-07-29T03:26:55;51199.81;;;-145.83;67.34
7730;BME280;3908;52.310;7.230;2022-07-29T03:29:43;51164.63;;;-145.83;68.24
7730;BME280;3908;52.310;7.230;2022-07-29T03:32:30;51180.25;;;-145.83;67.38
7730;BME280;3908;52.310;7.230;2022-07-29T03:35:17;51141.13;;;-145.83;67.64
7730;BME280;3908;52.310;7.230;2022-07-29T03:38:05;51170.47;;;-145.83;67.29
7730;BME280;3908;52.310;7.230;2022-07-29T03:40:54;51150.91;;;-145.83;68.06
7730;BME280;3908;52.310;7.230;2022-07-29T03:43:42;51145.06;;;-145.83;68.06
7730;BME280;3908;52.310;7.230;2022-07-29T03:46:32;51143.09;;;-145.83;68.58
7730;BME280;3908;52.310;7.230;2022-07-29T03:49:21;51156.78;;;-145.83;68.86
7730;BME280;3908;52.310;7.230;2022-07-29T03:52:10;51172.44;;;-145.83;68.55
7730;BME280;3908;52.310;7.230;2022-07-29T03:54:57;51192.00;;;-145.83;68.42
7730;BME280;3908;52.310;7.230;2022-07-29T03:57:45;51190.03;;;-145.83;68.37
7730;BME280;3908;52.310;7.230;2022-07-29T04:00:34;51207.66;;;-145.83;69.21
7730;BME280;3908;52.310;7.230;2022-07-29T04:03:22;51180.25;;;-145.83;69.57
7730;BME280;3908;52.310;7.230;2022-07-29T04:06:09;51152.88;;;-145.83;68.87
7730;BME280;3908;52.310;7.230;2022-07-29T04:08:56;51190.03;;;-145.83;68.38
7730;BME280;3908;52.310;7.230;2022-07-29T04:11:44;51207.66;;;-145.83;68.03
7730;BME280;3908;52.310;7.230;2022-07-29T04:14:32;51170.47;;;-145.83;68.21
7730;BME280;3908;52.310;7.230;2022-07-29T04:17:19;51156.78;;;-145.83;68.20
7730;BME280;3908;52.310;7.230;2022-07-29T04:20:10;51156.78;;;-145.83;68.57
7730;BME280;3908;52.310;7.230;2022-07-29T04:22:58;51154.84;;;-145.83;68.26
7730;BME280;3908;52.310;7.230;2022-07-29T04:25:45;51176.34;;;-145.83;68.25
7730;BME280;3908;52.310;7.230;2022-07-29T04:28:32;51195.91;;;-145.83;68.05
7730;BME280;3908;52.310;7.230;2022-07-29T04:31:20;51190.03;;;-145.83;68.06
7730;BME280;3908;52.310;7.230;2022-07-29T04:34:07;51190.03;;;-145.83;67.72
7730;BME280;3908;52.310;7.230;2022-07-29T04:36:56;51182.22;;;-145.83;67.64
7730;BME280;3908;52.310;7.230;2022-07-29T04:39:43;51221.34;;;-145.83;67.82
7730;BME280;3908;52.310;7.230;2022-07-29T04:42:33;51164.63;;;-145.83;67.30
7730;BME280;3908;52.310;7.230;2022-07-29T04:45:20;51172.44;;;-145.83;66.63
7730;BME280;3908;52.310;7.230;2022-07-29T04:48:07;51174.41;;;-145.83;66.58
7730;BME280;3908;52.310;7.230;2022-07-29T04:50:55;51217.44;;;-145.83;65.61
7730;BME280;3908;52.310;7.230;2022-07-29T04:53:43;51184.19;;;-145.83;65.12
7730;BME280;3908;52.310;7.230;2022-07-29T04:56:31;51178.31;;;-145.83;64.12
7730;BME280;3908;52.310;7.230;2022-07-29T04:59:18;51184.19;;;-145.83;64.19
7730;BME280;3908;52.310;7.230;2022-07-29T05:02:05;51162.66;;;-145.83;63.47
7730;BME280;3908;52.310;7.230;2022-07-29T05:04:55;51209.59;;;-145.83;62.55
7730;BME280;3908;52.310;7.230;2022-07-29T05:07:42;51180.25;;;-145.83;62.88
7730;BME280;3908;52.310;7.230;2022-07-29T05:10:30;51242.84;;;-145.83;62.20
7730;BME280;3908;52.310;7.230;2022-07-29T05:13:17;51199.81;;;-145.83;60.98
7730;BME280;3908;52.310;7.230;2022-07-29T05:16:04;51201.78;;;-145.83;59.94
7730;BME280;3908;52.310;7.230;2022-07-29T05:18:51;51221.34;;;-145.83;60.47
7730;BME280;3908;52.310;7.230;2022-07-29T05:21:38;51223.28;;;-145.83;60.85
7730;BME280;3908;52.310;7.230;2022-07-29T05:24:27;51201.78;;;-145.83;59.95
7730;BME280;3908;52.310;7.230;2022-07-29T05:27:15;51217.44;;;-145.83;60.97
7730;BME280;3908;52.310;7.230;2022-07-29T05:30:03;51205.69;;;-145.83;60.18
7730;BME280;3908;52.310;7.230;2022-07-29T05:32:53;51195.91;;;-145.83;60.42
7730;BME280;3908;52.310;7.230;2022-07-29T05:35:40;51188.09;;;-145.83;60.81
7730;BME280;3908;52.310;7.230;2022-07-29T05:38:28;51223.28;;;-145.83;61.10
7730;BME280;3908;52.310;7.230;2022-07-29T05:41:15;51211.56;;;-145.83;61.73
7730;BME280;3908;52.310;7.230;2022-07-29T05:44:04;51190.03;;;-145.83;61.17
7730;BME280;3908;52.310;7.230;2022-07-29T05:46:51;51203.72;;;-145.83;61.14
7730;BME280;3908;52.310;7.230;2022-07-29T05:49:38;51207.66;;;-145.83;60.50
7730;BME280;3908;52.310;7.230;2022-07-29T05:52:25;51184.19;;;-145.83;60.08
7730;BME280;3908;52.310;7.230;2022-07-29T05:55:12;51227.22;;;-145.83;60.69
7730;BME280;3908;52.310;7.230;2022-07-29T05:57:59;51156.78;;;-145.83;60.78
7730;BME280;3908;52.310;7.230;2022-07-29T06:00:51;51207.66;;;-145.83;61.00
7730;BME280;3908;52.310;7.230;2022-07-29T06:03:38;51182.22;;;-145.83;60.26
7730;BME280;3908;52.310;7.230;2022-07-29T06:06:26;51225.25;;;-145.83;60.08
7730;BME280;3908;52.310;7.230;2022-07-29T06:09:13;51193.97;;;-145.83;59.73
7730;BME280;3908;52.310;7.230;2022-07-29T06:12:00;51207.66;;;-145.83;59.50
7730;BME280;3908;52.310;7.230;2022-07-29T06:14:48;51203.72;;;-145.83;58.63
7730;BME280;3908;52.310;7.230;2022-07-29T06:17:36;51231.13;;;-145.83;59.51
7730;BME280;3908;52.310;7.230;2022-07-29T06:20:23;51221.34;;;-145.83;58.34
7730;BME280;3908;52.310;7.230;2022-07-29T06:23:10;51174.41;;;-145.83;58.13
7730;BME280;3908;52.310;7.230;2022-07-29T06:25:57;51223.28;;;-145.83;58.18
7730;BME280;3908;52.310;7.230;2022-07-29T06:28:45;51229.16;;;-145.83;58.28
7730;BME280;3908;52.310;7.230;2022-07-29T06:31:32;51237.00;;;-145.83;58.34
7730;BME280;3908;52.310;7.230;2022-07-29T06:34:23;51221.34;;;-145.83;57.89
7730;BME280;3908;52.310;7.230;2022-07-29T06:37:11;51203.72;;;-145.83;57.63
7730;BME280;3908;52.310;7.230;2022-07-29T06:39:58;51258.50;;;-145.83;55.71
7730;BME280;3908;52.310;7.230;2022-07-29T06:42:59;51217.44;;;-145.83;57.22
7730;BME280;3908;52.310;7.230;2022-07-29T06:45:46;51221.34;;;-145.83;56.92
7730;BME280;3908;52.310;7.230;2022-07-29T06:48:34;51231.13;;;-145.83;55.84
7730;BME280;3908;52.310;7.230;2022-07-29T06:51:23;51233.06;;;-145.83;56.18
7730;BME280;3908;52.310;7.230;2022-07-29T06:54:10;51237.00;;;-145.83;55.88
7730;BME280;3908;52.310;7.230;2022-07-29T06:56:57;51205.69;;;-145.83;56.88
7730;BME280;3908;52.310;7.230;2022-07-29T06:59:44;51227.22;;;-145.83;56.18
7730;BME280;3908;52.310;7.230;2022-07-29T07:02:31;51223.28;;;-145.83;56.07
7730;BME280;3908;52.310;7.230;2022-07-29T07:05:18;51215.47;;;-145.83;56.23
7730;BME280;3908;52.310;7.230;2022-07-29T07:08:07;51238.94;;;-145.83;57.49
7730;BME280;3908;52.310;7.230;2022-07-29T07:10:54;51215.47;;;-145.83;57.20
7730;BME280;3908;52.310;7.230;2022-07-29T07:13:42;51219.38;;;-145.83;58.35
7730;BME280;3908;52.310;7.230;2022-07-29T07:16:29;51244.81;;;-145.83;57.57
7730;BME280;3908;52.310;7.230;2022-07-29T07:19:16;51260.47;;;-145.83;56.42
7730;BME280;3908;52.310;7.230;2022-07-29T07:22:04;51197.88;;;-145.83;56.79
7730;BME280;3908;52.310;7.230;2022-07-29T07:24:53;51229.16;;;-145.83;56.45
7730;BME280;3908;52.310;7.230;2022-07-29T07:27:42;51195.91;;;-145.83;57.36
7730;BME280;3908;52.310;7.230;2022-07-29T07:30:29;51250.69;;;-145.83;57.30
7730;BME280;3908;52.310;7.230;2022-07-29T07:33:16;51248.72;;;-145.83;56.31
7730;BME280;3908;52.310;7.230;2022-07-29T07:36:04;51244.81;;;-145.83;56.94
7730;BME280;3908;52.310;7.230;2022-07-29T07:38:51;51221.34;;;-145.83;55.65
7730;BME280;3908;52.310;7.230;2022-07-29T07:41:39;51242.84;;;-145.83;57.60
7730;BME280;3908;52.310;7.230;2022-07-29T07:44:26;51227.22;;;-145.83;57.77
7730;BME280;3908;52.310;7.230;2022-07-29T07:47:13;51237.00;;;-145.83;57.35
7730;BME280;3908;52.310;7.230;2022-07-29T07:50:01;51219.38;;;-145.83;57.45
7730;BME280;3908;52.310;7.230;2022-07-29T07:52:50;51264.38;;;-145.83;56.67
7730;BME280;3908;52.310;7.230;2022-07-29T07:55:40;51244.81;;;-145.83;56.15
7730;BME280;3908;52.310;7.230;2022-07-29T07:58:28;51237.00;;;-145.83;55.58
7730;BME280;3908;52.310;7.230;2022-07-29T08:01:16;51256.56;;;-145.83;56.67
7730;BME280;3908;52.310;7.230;2022-07-29T08:04:05;51240.91;;;-145.83;57.60
7730;BME280;3908;52.310;7.230;2022-07-29T08:06:53;51248.72;;;-145.83;57.25
7730;BME280;3908;52.310;7.230;2022-07-29T08:09:40;51231.13;;;-145.83;56.27
7730;BME280;3908;52.310;7.230;2022-07-29T08:12:27;51211.56;;;-145.83;57.02
7730;BME280;3908;52.310;7.230;2022-07-29T08:15:16;51217.44;;;-145.83;56.69
7730;BME280;3908;52.310;7.230;2022-07-29T08:18:03;51213.50;;;-145.83;58.09
7730;BME280;3908;52.310;7.230;2022-07-29T08:20:50;51240.91;;;-145.83;57.39
7730;BME280;3908;52.310;7.230;2022-07-29T08:23:38;51231.13;;;-145.83;57.31
7730;BME280;3908;52.310;7.230;2022-07-29T08:26:31;51246.78;;;-145.83;58.24
7730;BME280;3908;52.310;7.230;2022-07-29T08:29:18;51215.47;;;-145.83;58.77
7730;BME280;3908;52.310;7.230;2022-07-29T08:32:07;51242.84;;;-145.83;58.79
7730;BME280;3908;52.310;7.230;2022-07-29T08:34:54;51213.50;;;-145.83;58.89
7730;BME280;3908;52.310;7.230;2022-07-29T08:37:41;51270.25;;;-145.83;59.43
7730;BME280;3908;52.310;7.230;2022-07-29T08:40:28;51252.66;;;-145.83;59.19
7730;BME280;3908;52.310;7.230;2022-07-29T08:43:15;51205.69;;;-145.83;59.94
7730;BME280;3908;52.310;7.230;2022-07-29T08:46:02;51240.91;;;-145.83;58.53
7730;BME280;3908;52.310;7.230;2022-07-29T08:48:51;51254.59;;;-145.83;59.03
7730;BME280;3908;52.310;7.230;2022-07-29T08:51:40;51237.00;;;-145.83;59.11
7730;BME280;3908;52.310;7.230;2022-07-29T08:54:27;51238.94;;;-145.83;58.62
7730;BME280;3908;52.310;7.230;2022-07-29T08:57:15;51229.16;;;-145.83;58.08
7730;BME280;3908;52.310;7.230;2022-07-29T09:00:05;51260.47;;;-145.83;58.30
7730;BME280;3908;52.310;7.230;2022-07-29T09:02:57;51237.00;;;-145.83;58.39
7730;BME280;3908;52.310;7.230;2022-07-29T09:05:46;51233.06;;;-145.83;58.72
7730;BME280;3908;52.310;7.230;2022-07-29T09:08:34;51248.72;;;-145.83;58.74
7730;BME280;3908;52.310;7.230;2022-07-29T09:11:21;51272.22;;;-145.83;57.94
7730;BME280;3908;52.310;7.230;2022-07-29T09:14:08;51233.06;;;-145.83;58.73
7730;BME280;3908;52.310;7.230;2022-07-29T09:16:57;51238.94;;;-145.83;59.06
7730;BME280;3908;52.310;7.230;2022-07-29T09:19:44;51238.94;;;-145.83;59.47
7730;BME280;3908;52.310;7.230;2022-07-29T09:22:32;51233.06;;;-145.83;59.11
7730;BME280;3908;52.310;7.230;2022-07-29T09:25:33;51227.22;;;-145.83;58.97
7730;BME280;3908;52.310;7.230;2022-07-29T09:28:20;51250.69;;;-145.83;59.65
7730;BME280;3908;52.310;7.230;2022-07-29T09:31:09;51248.72;;;-145.83;59.95
7730;BME280;3908;52.310;7.230;2022-07-29T09:33:57;51240.91;;;-145.83;60.84
7730;BME280;3908;52.310;7.230;2022-07-29T09:36:47;51278.06;;;-145.83;61.08
7730;BME280;3908;52.310;7.230;2022-07-29T09:39:37;51227.22;;;-145.83;61.34
7730;BME280;3908;52.310;7.230;2022-07-29T09:42:31;51203.72;;;-145.83;61.43
7730;BME280;3908;52.310;7.230;2022-07-29T09:45:27;51248.72;;;-145.83;62.07
7730;BME280;3908;52.310;7.230;2022-07-29T09:48:16;51209.59;;;-145.83;61.32
7730;BME280;3908;52.310;7.230;2022-07-29T09:51:03;51233.06;;;-145.83;60.98
7730;BME280;3908;52.310;7.230;2022-07-29T09:53:52;51250.69;;;-145.83;61.13
7730;BME280;3908;52.310;7.230;2022-07-29T09:56:41;51238.94;;;-145.83;60.05
7730;BME280;3908;52.310;7.230;2022-07-29T09:59:29;51246.78;;;-145.83;59.83
7730;BME280;3908;52.310;7.230;2022-07-29T10:02:16;51238.94;;;-145.83;59.65
7730;BME280;3908;52.310;7.230;2022-07-29T10:05:04;51252.66;;;-145.83;58.84
7730;BME280;3908;52.310;7.230;2022-07-29T10:07:53;51231.13;;;-145.83;60.18
7730;BME280;3908;52.310;7.230;2022-07-29T10:10:42;51262.44;;;-145.83;59.33
7730;BME280;3908;52.310;7.230;2022-07-29T10:13:30;51274.16;;;-145.83;59.75
7730;BME280;3908;52.310;7.230;2022-07-29T10:16:17;51215.47;;;-145.83;60.85
7730;BME280;3908;52.310;7.230;2022-07-29T10:19:04;51237.00;;;-145.83;60.31
7730;BME280;3908;52.310;7.230;2022-07-29T10:21:51;51250.69;;;-145.83;60.22
7730;BME280;3908;52.310;7.230;2022-07-29T10:24:39;51266.34;;;-145.83;62.63
7730;BME280;3908;52.310;7.230;2022-07-29T10:27:26;51278.06;;;-145.83;62.18
7730;BME280;3908;52.310;7.230;2022-07-29T10:30:16;51248.72;;;-145.83;64.27
7730;BME280;3908;52.310;7.230;2022-07-29T10:33:24;51252.66;;;-145.83;64.35
7730;BME280;3908;52.310;7.230;2022-07-29T10:36:32;51244.81;;;-145.83;64.48
7730;BME280;3908;52.310;7.230;2022-07-29T10:39:32;51235.03;;;-145.83;66.69
7730;BME280;3908;52.310;7.230;2022-07-29T10:42:29;51274.16;;;-145.83;66.71
7730;BME280;3908;52.310;7.230;2022-07-29T10:45:19;51225.25;;;-145.83;69.08
7730;BME280;3908;52.310;7.230;2022-07-29T10:48:06;51252.66;;;-145.83;69.72
7730;BME280;3908;52.310;7.230;2022-07-29T10:50:54;51256.56;;;-145.83;70.23
7730;BME280;3908;52.310;7.230;2022-07-29T10:53:46;51238.94;;;-145.83;69.88
7730;BME280;3908;52.310;7.230;2022-07-29T10:56:34;51250.69;;;-145.83;73.04
7730;BME280;3908;52.310;7.230;2022-07-29T10:59:25;51235.03;;;-145.83;74.70
7730;BME280;3908;52.310;7.230;2022-07-29T11:02:46;51242.84;;;-145.83;75.82
7730;BME280;3908;52.310;7.230;2022-07-29T11:05:52;51274.16;;;-145.83;76.58
7730;BME280;3908;52.310;7.230;2022-07-29T11:08:40;51233.06;;;-145.83;75.47
7730;BME280;3908;52.310;7.230;2022-07-29T11:11:31;51254.59;;;-145.83;76.49
7730;BME280;3908;52.310;7.230;2022-07-29T11:14:56;51254.59;;;-145.83;76.85
7730;BME280;3908;52.310;7.230;2022-07-29T11:18:06;51217.44;;;-145.83;77.60
7730;BME280;3908;52.310;7.230;2022-07-29T11:20:53;51219.38;;;-145.83;79.75
7730;BME280;3908;52.310;7.230;2022-07-29T11:23:41;51237.00;;;-145.83;78.84
7730;BME280;3908;52.310;7.230;2022-07-29T11:26:29;51231.13;;;-145.83;80.94
7730;BME280;3908;52.310;7.230;2022-07-29T11:29:19;51250.69;;;-145.83;81.93
7730;BME280;3908;52.310;7.230;2022-07-29T11:32:09;51231.13;;;-145.83;82.30
7730;BME280;3908;52.310;7.230;2022-07-29T11:35:15;51235.03;;;-145.83;82.28
7730;BME280;3908;52.310;7.230;2022-07-29T11:38:25;51195.91;;;-145.83;81.10
7730;BME280;3908;52.310;7.230;2022-07-29T11:41:21;51225.25;;;-145.83;81.42
7730;BME280;3908;52.310;7.230;2022-07-29T11:44:09;51229.16;;;-145.83;80.41
7730;BME280;3908;52.310;7.230;2022-07-29T11:46:56;51193.97;;;-145.83;79.26
7730;BME280;3908;52.310;7.230;2022-07-29T11:49:44;51238.94;;;-145.83;80.60
7730;BME280;3908;52.310;7.230;2022-07-29T11:52:34;51223.28;;;-145.83;80.91
7730;BME280;3908;52.310;7.230;2022-07-29T11:55:23;51211.56;;;-145.83;79.67
7730;BME280;3908;52.310;7.230;2022-07-29T11:58:10;51250.69;;;-145.83;80.22
7730;BME280;3908;52.310;7.230;2022-07-29T12:00:58;51229.16;;;-145.83;79.75
7730;BME280;3908;52.310;7.230;2022-07-29T12:03:46;51252.66;;;-145.83;80.57
7730;BME280;3908;52.310;7.230;2022-07-29T12:06:33;51254.59;;;-145.83;80.72
7730;BME280;3908;52.310;7.230;2022-07-29T12:09:22;51250.69;;;-145.83;80.85
7730;BME280;3908;52.310;7.230;2022-07-29T12:12:10;51250.69;;;-145.83;79.94
7730;BME280;3908;52.310;7.230;2022-07-29T12:14:57;51281.97;;;-145.83;79.59
7730;BME280;3908;52.310;7.230;2022-07-29T12:17:44;51225.25;;;-145.83;79.53
7730;BME280;3908;52.310;7.230;2022-07-29T12:20:31;51258.50;;;-145.83;79.72
7730;BME280;3908;52.310;7.230;2022-07-29T12:23:19;51242.84;;;-145.83;79.73
7730;BME280;3908;52.310;7.230;2022-07-29T12:26:08;51260.47;;;-145.83;79.21
7730;BME280;3908;52.310;7.230;2022-07-29T12:28:55;51276.13;;;-145.83;79.08
7730;BME280;3908;52.310;7.230;2022-07-29T12:31:42;51270.25;;;-145.83;77.54
7730;BME280;3908;52.310;7.230;2022-07-29T12:34:30;51229.16;;;-145.83;76.74
7730;BME280;3908;52.310;7.230;2022-07-29T12:37:17;51278.06;;;-145.83;76.93
7730;BME280;3908;52.310;7.230;2022-07-29T12:40:06;51240.91;;;-145.83;76.88
7730;BME280;3908;52.310;7.230;2022-07-29T12:43:08;51248.72;;;-145.83;76.07
7730;BME280;3908;52.310;7.230;2022-07-29T12:45:57;51266.34;;;-145.83;77.21
7730;BME280;3908;52.310;7.230;2022-07-29T12:48:44;51244.81;;;-145.83;77.74
7730;BME280;3908;52.310;7.230;2022-07-29T12:51:32;51254.59;;;-145.83;78.32
7730;BME280;3908;52.310;7.230;2022-07-29T12:54:20;51248.72;;;-145.83;78.34
7730;BME280;3908;52.310;7.230;2022-07-29T12:57:07;51242.84;;;-145.83;78.41
7730;BME280;3908;52.310;7.230;2022-07-29T13:00:04;51235.03;;;-145.83;79.81
7730;BME280;3908;52.310;7.230;2022-07-29T13:02:55;51272.22;;;-145.83;80.48
7730;BME280;3908;52.310;7.230;2022-07-29T13:05:44;51252.66;;;-145.83;81.09
7730;BME280;3908;52.310;7.230;2022-07-29T13:08:31;51233.06;;;-145.83;81.10
7730;BME280;3908;52.310;7.230;2022-07-29T13:11:29;51246.78;;;-145.83;80.29
7730;BME280;3908;52.310;7.230;2022-07-29T13:14:30;51252.66;;;-145.83;79.46
7730;BME280;3908;52.310;7.230;2022-07-29T13:17:23;51272.22;;;-145.83;78.07
7730;BME280;3908;52.310;7.230;2022-07-29T13:20:13;51270.25;;;-145.83;77.71
7730;BME280;3908;52.310;7.230;2022-07-29T13:23:03;51258.50;;;-145.83;78.24
7730;BME280;3908;52.310;7.230;2022-07-29T13:25:50;51281.97;;;-145.83;77.76
7730;BME280;3908;52.310;7.230;2022-07-29T13:28:37;51272.22;;;-145.83;75.30
7730;BME280;3908;52.310;7.230;2022-07-29T13:31:25;51274.16;;;-145.83;75.32
7730;BME280;3908;52.310;7.230;2022-07-29T13:34:14;51266.34;;;-145.83;75.51
7730;BME280;3908;52.310;7.230;2022-07-29T13:37:01;51260.47;;;-145.83;73.97
7730;BME280;3908;52.310;7.230;2022-07-29T13:39:49;51270.25;;;-145.83;72.92
7730;BME280;3908;52.310;7.230;2022-07-29T13:42:36;51283.94;;;-145.83;72.12
7730;BME280;3908;52.310;7.230;2022-07-29T13:45:23;51311.31;;;-145.83;70.53
7730;BME280;3908;52.310;7.230;2022-07-29T13:48:10;51325.03;;;-145.83;69.89
7730;BME280;3908;52.310;7.230;2022-07-29T13:50:58;51326.97;;;-145.83;69.58
7730;BME280;3908;52.310;7.230;2022-07-29T13:53:45;51301.53;;;-145.83;67.56
7730;BME280;3908;52.310;7.230;2022-07-29T13:56:32;51356.31;;;-145.83;65.58
7730;BME280;3908;52.310;7.230;2022-07-29T13:59:20;51326.97;;;-145.83;65.62
7730;BME280;3908;52.310;7.230;2022-07-29T14:02:07;51332.84;;;-145.83;66.14
7730;BME280;3908;52.310;7.230;2022-07-29T14:04:54;51354.38;;;-145.83;63.34
7730;BME280;3908;52.310;7.230;2022-07-29T14:07:43;51321.09;;;-145.83;61.47
7730;BME280;3908;52.310;7.230;2022-07-29T14:10:32;51332.84;;;-145.83;63.87
7730;BME280;3908;52.310;7.230;2022-07-29T14:13:19;51332.84;;;-145.83;63.22
7730;BME280;3908;52.310;7.230;2022-07-29T14:16:06;51352.41;;;-145.83;62.03
7730;BME280;3908;52.310;7.230;2022-07-29T14:18:53;51366.09;;;-145.83;62.66
7730;BME280;3908;52.310;7.230;2022-07-29T14:21:40;51336.75;;;-145.83;61.77
7730;BME280;3908;52.310;7.230;2022-07-29T14:24:29;51344.59;;;-145.83;60.83
7730;BME280;3908;52.310;7.230;2022-07-29T14:27:16;51317.19;;;-145.83;61.57
7730;BME280;3908;52.310;7.230;2022-07-29T14:30:04;51311.31;;;-145.83;61.58
7730;BME280;3908;52.310;7.230;2022-07-29T14:32:51;51326.97;;;-145.83;60.89
7730;BME280;3908;52.310;7.230;2022-07-29T14:35:39;51338.72;;;-145.83;62.31
7730;BME280;3908;52.310;7.230;2022-07-29T14:38:26;51328.94;;;-145.83;61.33
7730;BME280;3908;52.310;7.230;2022-07-29T14:41:14;51321.09;;;-145.83;61.07
7730;BME280;3908;52.310;7.230;2022-07-29T14:44:02;51315.25;;;-145.83;60.34
7730;BME280;3908;52.310;7.230;2022-07-29T14:46:49;51340.69;;;-145.83;60.91
7730;BME280;3908;52.310;7.230;2022-07-29T14:49:36;51285.91;;;-145.83;60.33
7730;BME280;3908;52.310;7.230;2022-07-29T14:52:23;51280.03;;;-145.83;60.61
7730;BME280;3908;52.310;7.230;2022-07-29T14:55:10;51373.94;;;-145.83;58.13
7730;BME280;3908;52.310;7.230;2022-07-29T14:57:59;51350.47;;;-145.83;57.33